Time;durP1;ratioP1;P1;durP2;ratioP2;P2;SDS_P1;SDS_P2;PMS_P1;PMS_P2;Temp;Humidity;BMP_temperature;BMP_pressure;BME280_temperature;BME280_humidity;BME280_pressure;Samples;Min_cycle;Max_cycle;Signal;HPM_P1;HPM_P2
2023/06/29 00:00:23;;;;;;;;;;;;;;;22.08;39.17;101659.31;5066532;28;20023;-80
2023/06/29 00:02:48;;;;;;;;;;;;;;;22.03;38.88;101652.00;5067905;28;20361;-80
2023/06/29 00:05:14;;;;;;;;;;;;;;;21.97;39.04;101655.16;5060899;28;19960;-80
2023/06/29 00:07:39;;;;;;;;;;;;;;;21.93;39.28;101651.41;5061412;28;20388;-80
2023/06/29 00:10:06;;;;;;;;;;;;;;;21.93;39.38;101654.13;5064263;28;19958;-80
2023/06/29 00:12:31;;;;;;;;;;;;;;;21.91;39.32;101651.72;5059716;28;19917;-80
2023/06/29 00:14:56;;;;;;;;;;;;;;;21.91;39.01;101653.63;5061943;28;19931;-80
2023/06/29 00:17:22;;;;;;;;;;;;;;;21.87;39.11;101653.41;5056144;28;19955;-79
2023/06/29 00:19:48;;;;;;;;;;;;;;;21.83;39.24;101652.41;5055701;28;20339;-79
2023/06/29 00:22:14;;;;;;;;;;;;;;;21.79;39.05;101662.31;5054059;28;19960;-80
2023/06/29 00:24:42;;;;;;;;;;;;;;;21.76;39.44;101662.09;5063291;28;19939;-80
2023/06/29 00:27:11;;;;;;;;;;;;;;;21.73;39.28;101668.97;5061211;28;19921;-79
2023/06/29 00:29:37;;;;;;;;;;;;;;;21.66;39.40;101658.44;5065629;28;19921;-80
2023/06/29 00:32:02;;;;;;;;;;;;;;;21.64;39.59;101657.94;5057203;28;19982;-80
2023/06/29 00:34:27;;;;;;;;;;;;;;;21.61;39.49;101666.72;5058037;28;19924;-80
2023/06/29 00:36:53;;;;;;;;;;;;;;;21.54;39.54;101657.28;5059234;28;19917;-79
2023/06/29 00:39:18;;;;;;;;;;;;;;;21.48;39.66;101656.56;5059943;28;20384;-80
2023/06/29 00:41:43;;;;;;;;;;;;;;;21.42;39.64;101658.59;5059947;28;19946;-80
2023/06/29 00:44:09;;;;;;;;;;;;;;;21.36;39.52;101653.50;5057584;28;20001;-81
2023/06/29 00:46:34;;;;;;;;;;;;;;;21.34;39.50;101650.28;5056134;28;20023;-80
2023/06/29 00:49:00;;;;;;;;;;;;;;;21.30;39.60;101647.34;5064267;28;19924;-79
2023/06/29 00:51:25;;;;;;;;;;;;;;;21.28;39.46;101641.38;5063709;28;19920;-79
2023/06/29 00:53:51;;;;;;;;;;;;;;;21.26;39.62;101648.25;5056462;28;20327;-80
2023/06/29 00:56:16;;;;;;;;;;;;;;;21.24;39.74;101644.97;5059455;28;19921;-80
2023/06/29 00:58:42;;;;;;;;;;;;;;;21.18;39.81;101637.97;5058597;28;19917;-80
2023/06/29 01:01:07;;;;;;;;;;;;;;;21.15;39.70;101647.56;5064474;28;20011;-80
2023/06/29 01:03:33;;;;;;;;;;;;;;;21.13;39.86;101641.59;5067023;28;19920;-80
2023/06/29 01:06:03;;;;;;;;;;;;;;;21.09;39.90;101646.03;5057797;28;19956;-80
2023/06/29 01:08:31;;;;;;;;;;;;;;;21.06;39.96;101649.34;5055941;28;19928;-80
2023/06/29 01:10:57;;;;;;;;;;;;;;;21.03;39.99;101644.50;5057717;28;20315;-79
2023/06/29 01:13:23;;;;;;;;;;;;;;;21.02;39.99;101640.16;5057070;28;20419;-80
2023/06/29 01:15:49;;;;;;;;;;;;;;;20.98;40.26;101637.19;5053480;28;19928;-79
2023/06/29 01:18:16;;;;;;;;;;;;;;;20.95;40.12;101637.78;5058497;28;19923;-80
2023/06/29 01:20:42;;;;;;;;;;;;;;;20.91;40.31;101633.25;5059517;28;20377;-80
2023/06/29 01:23:14;;;;;;;;;;;;;;;20.86;40.25;101639.59;5055691;28;20393;-80
2023/06/29 01:25:40;;;;;;;;;;;;;;;20.81;40.14;101636.91;5059475;28;19921;-79
2023/06/29 01:28:06;;;;;;;;;;;;;;;20.77;40.34;101631.25;5057131;28;19943;-80
2023/06/29 01:30:32;;;;;;;;;;;;;;;20.70;40.96;101647.16;5061523;28;19990;-79
2023/06/29 01:32:57;;;;;;;;;;;;;;;20.65;40.53;101643.72;5060725;28;19978;-80
2023/06/29 01:35:22;;;;;;;;;;;;;;;20.62;40.76;101639.63;5063301;28;20881;-80
2023/06/29 01:37:56;;;;;;;;;;;;;;;20.61;40.72;101638.00;5063151;28;19922;-79
2023/06/29 01:40:24;;;;;;;;;;;;;;;20.59;40.81;101632.06;5060769;28;20311;-79
2023/06/29 01:42:50;;;;;;;;;;;;;;;20.57;40.86;101639.72;5057793;28;20004;-79
2023/06/29 01:45:18;;;;;;;;;;;;;;;20.54;40.87;101634.88;5057913;28;20074;-79
2023/06/29 01:47:43;;;;;;;;;;;;;;;20.50;40.88;101640.09;5057525;28;20373;-79
2023/06/29 01:50:08;;;;;;;;;;;;;;;20.46;40.85;101632.78;5060350;28;19928;-79
2023/06/29 01:52:34;;;;;;;;;;;;;;;20.44;40.76;101632.25;5064184;28;19979;-80
2023/06/29 01:54:59;;;;;;;;;;;;;;;20.41;41.03;101633.66;5059042;28;19928;-80
2023/06/29 01:57:25;;;;;;;;;;;;;;;20.39;41.10;101629.59;5058648;28;19920;-80
2023/06/29 01:59:50;;;;;;;;;;;;;;;20.36;41.11;101627.44;5057590;28;19963;-80
2023/06/29 02:02:15;;;;;;;;;;;;;;;20.33;41.21;101628.84;5063892;28;19916;-79
2023/06/29 02:04:41;;;;;;;;;;;;;;;20.31;41.04;101627.53;5061947;28;19924;-79
2023/06/29 02:07:06;;;;;;;;;;;;;;;20.28;41.54;101631.63;5053254;28;19920;-79
2023/06/29 02:09:31;;;;;;;;;;;;;;;20.25;41.36;101629.47;5058775;28;19924;-80
2023/06/29 02:11:56;;;;;;;;;;;;;;;20.22;41.52;101633.59;5057187;28;19923;-80
2023/06/29 02:14:22;;;;;;;;;;;;;;;20.21;41.68;101636.63;5054007;28;19916;-79
2023/06/29 02:16:47;;;;;;;;;;;;;;;20.17;41.63;101628.22;5066051;28;19912;-80
2023/06/29 02:19:13;;;;;;;;;;;;;;;20.12;41.52;101631.03;5059629;28;20447;-79
2023/06/29 02:21:38;;;;;;;;;;;;;;;20.11;41.56;101628.59;5057434;28;20305;-79
2023/06/29 02:24:04;;;;;;;;;;;;;;;20.08;41.77;101624.53;5056108;28;20368;-79
2023/06/29 02:26:29;;;;;;;;;;;;;;;20.08;41.87;101626.44;5057840;28;20388;-79
2023/06/29 02:28:54;;;;;;;;;;;;;;;20.09;41.70;101617.16;5057837;28;19948;-80
2023/06/29 02:31:19;;;;;;;;;;;;;;;20.09;41.77;101619.88;5059057;28;20436;-80
2023/06/29 02:33:45;;;;;;;;;;;;;;;20.06;41.74;101624.00;5059749;28;19965;-80
2023/06/29 02:36:10;;;;;;;;;;;;;;;20.03;41.90;101621.88;5055311;28;19920;-79
2023/06/29 02:38:36;;;;;;;;;;;;;;;19.96;42.37;101626.88;5052926;28;19966;-79
2023/06/29 02:41:01;;;;;;;;;;;;;;;19.88;42.05;101630.19;5056707;28;19987;-80
2023/06/29 02:43:26;;;;;;;;;;;;;;;19.88;42.16;101632.91;5054950;28;20440;-79
2023/06/29 02:45:52;;;;;;;;;;;;;;;19.90;42.05;101639.69;5051228;28;20304;-80
2023/06/29 02:48:17;;;;;;;;;;;;;;;19.94;41.77;101641.84;5052971;28;19988;-79
2023/06/29 02:50:42;;;;;;;;;;;;;;;19.97;41.80;101639.34;5055065;28;19916;-79
2023/06/29 02:53:11;;;;;;;;;;;;;;;19.98;41.93;101637.44;5060870;28;19920;-80
2023/06/29 02:55:36;;;;;;;;;;;;;;;19.97;41.82;101633.09;5057087;28;20469;-79
2023/06/29 02:58:01;;;;;;;;;;;;;;;19.92;42.37;101642.91;5055417;28;19940;-80
2023/06/29 03:00:26;;;;;;;;;;;;;;;19.89;42.12;101642.69;5060303;28;19924;-80
2023/06/29 03:02:52;;;;;;;;;;;;;;;19.89;42.08;101639.97;5057699;28;20567;-79
2023/06/29 03:05:17;;;;;;;;;;;;;;;19.90;42.29;101636.16;5055174;28;19917;-80
2023/06/29 03:07:42;;;;;;;;;;;;;;;19.91;42.32;101635.06;5058309;28;20770;-79
2023/06/29 03:10:08;;;;;;;;;;;;;;;19.91;42.41;101630.44;5062388;28;19920;-79
2023/06/29 03:12:33;;;;;;;;;;;;;;;19.89;42.42;101635.34;5064414;28;19920;-79
2023/06/29 03:14:59;;;;;;;;;;;;;;;19.87;42.50;101634.03;5062861;28;20276;-79
2023/06/29 03:17:24;;;;;;;;;;;;;;;19.83;42.43;101628.34;5054607;28;19928;-79
2023/06/29 03:19:50;;;;;;;;;;;;;;;19.81;42.66;101627.03;5052503;28;19917;-80
2023/06/29 03:22:15;;;;;;;;;;;;;;;19.80;42.52;101622.69;5055189;28;19931;-79
2023/06/29 03:24:40;;;;;;;;;;;;;;;19.82;42.63;101636.81;5057113;28;20376;-79
2023/06/29 03:27:06;;;;;;;;;;;;;;;19.84;42.46;101631.88;5055512;28;20054;-80
2023/06/29 03:29:31;;;;;;;;;;;;;;;19.85;42.83;101633.50;5054146;28;19967;-79
2023/06/29 03:31:59;;;;;;;;;;;;;;;19.90;42.77;101628.81;5058775;28;20003;-79
2023/06/29 03:34:24;;;;;;;;;;;;;;;19.94;42.54;101634.50;5055376;28;19981;-79
2023/06/29 03:36:50;;;;;;;;;;;;;;;20.00;42.97;101630.63;5057234;28;19916;-80
2023/06/29 03:39:15;;;;;;;;;;;;;;;20.04;43.11;101633.56;5054497;28;19916;-80
2023/06/29 03:41:40;;;;;;;;;;;;;;;20.10;42.95;101627.75;5056049;28;20300;-80
2023/06/29 03:44:06;;;;;;;;;;;;;;;20.18;42.97;101629.03;5055680;28;19920;-80
2023/06/29 03:46:31;;;;;;;;;;;;;;;20.26;42.95;101627.56;5055475;28;19948;-80
2023/06/29 03:48:57;;;;;;;;;;;;;;;20.31;42.94;101632.97;5060321;28;20380;-79
2023/06/29 03:51:22;;;;;;;;;;;;;;;20.35;42.99;101629.38;5062985;28;19979;-79
2023/06/29 03:53:47;;;;;;;;;;;;;;;20.40;43.07;101633.94;5061856;28;20372;-79
2023/06/29 03:56:12;;;;;;;;;;;;;;;20.44;43.09;101640.44;5064207;28;20595;-79
2023/06/29 03:58:38;;;;;;;;;;;;;;;20.48;43.15;101630.59;5056043;28;19916;-79
2023/06/29 04:01:03;;;;;;;;;;;;;;;20.52;43.33;101635.16;5062168;28;19925;-80
2023/06/29 04:03:28;;;;;;;;;;;;;;;20.59;43.23;101640.22;5064665;28;21070;-80
2023/06/29 04:05:54;;;;;;;;;;;;;;;20.67;43.38;101636.88;5055558;28;19917;-79
2023/06/29 04:08:19;;;;;;;;;;;;;;;20.78;43.34;101638.31;5055482;28;20095;-80
2023/06/29 04:10:44;;;;;;;;;;;;;;;20.91;43.26;101635.97;5067558;28;19925;-80
2023/06/29 04:13:10;;;;;;;;;;;;;;;21.03;43.11;101630.88;5059432;28;19947;-79
2023/06/29 04:15:35;;;;;;;;;;;;;;;21.13;43.23;101631.50;5062798;28;20304;-81
2023/06/29 04:18:01;;;;;;;;;;;;;;;21.24;42.96;101634.91;5055790;28;20392;-80
2023/06/29 04:20:28;;;;;;;;;;;;;;;21.33;43.25;101627.66;5067477;28;20014;-80
2023/06/29 04:22:54;;;;;;;;;;;;;;;21.38;43.37;101630.31;5064026;28;19925;-79
2023/06/29 04:25:19;;;;;;;;;;;;;;;21.38;43.31;101630.31;5059952;28;20297;-79
2023/06/29 04:27:44;;;;;;;;;;;;;;;21.45;43.58;101634.56;5063792;28;19927;-80
2023/06/29 04:30:11;;;;;;;;;;;;;;;21.49;43.66;101630.13;5064542;28;19974;-80
2023/06/29 04:32:36;;;;;;;;;;;;;;;21.56;43.81;101634.09;5067212;28;20391;-80
2023/06/29 04:35:01;;;;;;;;;;;;;;;21.63;43.65;101628.22;5066625;28;19928;-80
2023/06/29 04:37:36;;;;;;;;;;;;;;;21.67;43.67;101627.31;5067115;28;20396;-80
2023/06/29 04:40:04;;;;;;;;;;;;;;;21.78;43.74;101624.41;5063962;28;19985;-80
2023/06/29 04:42:30;;;;;;;;;;;;;;;21.89;43.74;101628.53;5066020;28;19916;-80
2023/06/29 04:44:55;;;;;;;;;;;;;;;22.03;43.66;101623.91;5062531;28;20385;-80
2023/06/29 04:47:20;;;;;;;;;;;;;;;22.11;44.03;101628.69;5063386;28;19916;-80
2023/06/29 04:49:46;;;;;;;;;;;;;;;22.19;43.52;101627.16;5065762;28;20003;-79
2023/06/29 04:52:11;;;;;;;;;;;;;;;22.28;43.48;101626.16;5061834;28;19927;-80
2023/06/29 04:54:37;;;;;;;;;;;;;;;22.36;43.43;101621.88;5060863;28;20018;-79
2023/06/29 04:57:03;;;;;;;;;;;;;;;22.45;43.46;101621.97;5062035;28;19920;-79
2023/06/29 04:59:28;;;;;;;;;;;;;;;22.53;43.55;101622.06;5061070;28;19974;-80
2023/06/29 05:01:54;;;;;;;;;;;;;;;22.66;43.48;101630.53;5057948;28;20324;-79
2023/06/29 05:04:19;;;;;;;;;;;;;;;22.75;43.23;101620.47;5060967;28;20299;-79
2023/06/29 05:06:44;;;;;;;;;;;;;;;22.85;43.09;101618.34;5059599;28;19951;-80
2023/06/29 05:09:10;;;;;;;;;;;;;;;22.95;43.34;101622.75;5062026;28;19982;-80
2023/06/29 05:11:35;;;;;;;;;;;;;;;23.02;43.07;101625.06;5061743;28;19921;-80
2023/06/29 05:14:00;;;;;;;;;;;;;;;23.01;43.29;101620.72;5059979;28;19921;-80
2023/06/29 05:16:26;;;;;;;;;;;;;;;23.06;43.38;101615.91;5062246;28;19939;-80
2023/06/29 05:18:51;;;;;;;;;;;;;;;23.14;43.06;101623.34;5060777;28;19924;-80
2023/06/29 05:21:17;;;;;;;;;;;;;;;23.21;43.02;101621.00;5061118;28;19921;-80
2023/06/29 05:23:43;;;;;;;;;;;;;;;23.31;42.95;101621.84;5060975;28;19928;-80
2023/06/29 05:26:08;;;;;;;;;;;;;;;23.41;42.92;101618.88;5060648;28;20550;-80
2023/06/29 05:28:33;;;;;;;;;;;;;;;23.51;42.87;101615.84;5065594;28;20436;-79
2023/06/29 05:30:58;;;;;;;;;;;;;;;23.55;42.91;101614.13;5063017;28;20295;-80
2023/06/29 05:33:24;;;;;;;;;;;;;;;23.63;42.84;101624.31;5059032;28;19928;-80
2023/06/29 05:35:49;;;;;;;;;;;;;;;23.71;42.59;101617.28;5059417;28;19966;-80
2023/06/29 05:38:14;;;;;;;;;;;;;;;23.79;42.69;101619.25;5060366;28;19932;-79
2023/06/29 05:40:40;;;;;;;;;;;;;;;23.89;42.85;101620.91;5054672;28;19916;-79
2023/06/29 05:43:05;;;;;;;;;;;;;;;24.02;42.70;101622.69;5061066;28;19970;-80
2023/06/29 05:45:30;;;;;;;;;;;;;;;24.15;42.60;101616.28;5059216;28;19927;-80
2023/06/29 05:47:56;;;;;;;;;;;;;;;24.27;42.75;101615.69;5059005;28;20406;-80
2023/06/29 05:50:21;;;;;;;;;;;;;;;24.40;42.81;101612.81;5057603;28;19916;-80
2023/06/29 05:52:46;;;;;;;;;;;;;;;24.57;42.44;101616.69;5059159;28;19916;-80
2023/06/29 05:55:11;;;;;;;;;;;;;;;24.72;42.29;101608.00;5057230;28;19925;-80
2023/06/29 05:57:38;;;;;;;;;;;;;;;24.84;42.06;101612.84;5059303;28;19955;-80
2023/06/29 06:00:09;;;;;;;;;;;;;;;24.96;41.84;101607.53;5061751;28;19989;-80
2023/06/29 06:02:36;;;;;;;;;;;;;;;25.08;41.83;101613.16;5064946;28;20569;-80
2023/06/29 06:05:01;;;;;;;;;;;;;;;25.25;41.87;101609.59;5059090;28;19916;-80
2023/06/29 06:07:28;;;;;;;;;;;;;;;25.40;41.69;101608.25;5053331;28;19925;-80
2023/06/29 06:09:53;;;;;;;;;;;;;;;25.46;41.63;101615.16;5062382;28;19928;-80
2023/06/29 06:12:19;;;;;;;;;;;;;;;25.57;41.65;101611.75;5062182;28;20328;-80
2023/06/29 06:14:44;;;;;;;;;;;;;;;25.73;41.58;101606.56;5063431;28;20019;-81
2023/06/29 06:17:09;;;;;;;;;;;;;;;25.85;41.58;101611.31;5054712;28;19973;-79
2023/06/29 06:19:34;;;;;;;;;;;;;;;25.99;41.35;101613.84;5058596;28;20587;-79
2023/06/29 06:22:00;;;;;;;;;;;;;;;26.15;40.91;101606.66;5063534;28;19924;-80
2023/06/29 06:24:25;;;;;;;;;;;;;;;26.26;40.56;101607.88;5057187;28;20377;-79
2023/06/29 06:26:50;;;;;;;;;;;;;;;26.36;40.40;101614.94;5059069;28;20506;-80
2023/06/29 06:29:16;;;;;;;;;;;;;;;26.47;40.41;101614.22;5060676;28;19967;-80
2023/06/29 06:31:41;;;;;;;;;;;;;;;26.58;40.26;101613.84;5059960;28;19923;-81
2023/06/29 06:34:06;;;;;;;;;;;;;;;26.70;40.20;101617.44;5061822;28;19917;-80
2023/06/29 06:36:32;;;;;;;;;;;;;;;26.79;39.81;101620.13;5055764;28;20381;-80
2023/06/29 06:38:58;;;;;;;;;;;;;;;26.86;39.69;101617.63;5062664;28;20003;-80
2023/06/29 06:41:23;;;;;;;;;;;;;;;27.00;39.70;101617.38;5060662;28;19921;-80
2023/06/29 06:43:48;;;;;;;;;;;;;;;27.16;39.56;101612.84;5053161;28;20296;-80
2023/06/29 06:46:14;;;;;;;;;;;;;;;27.32;38.91;101611.03;5058964;28;19997;-80
2023/06/29 06:48:39;;;;;;;;;;;;;;;27.42;38.73;101615.28;5060012;28;19974;-80
2023/06/29 06:51:04;;;;;;;;;;;;;;;27.47;38.51;101615.09;5058768;28;19916;-80
2023/06/29 06:53:30;;;;;;;;;;;;;;;27.60;38.42;101618.63;5064051;28;19920;-80
2023/06/29 06:55:55;;;;;;;;;;;;;;;27.79;37.70;101615.34;5055296;28;20308;-80
2023/06/29 06:58:20;;;;;;;;;;;;;;;27.96;37.82;101606.88;5061810;28;19948;-80
2023/06/29 07:00:45;;;;;;;;;;;;;;;28.07;37.75;101601.69;5052880;28;19924;-80
2023/06/29 07:03:11;;;;;;;;;;;;;;;28.21;37.21;101605.69;5056831;28;19973;-80
2023/06/29 07:05:36;;;;;;;;;;;;;;;28.34;37.37;101609.25;5054676;28;20383;-80
2023/06/29 07:08:01;;;;;;;;;;;;;;;28.44;36.75;101603.25;5057525;28;19920;-80
2023/06/29 07:10:27;;;;;;;;;;;;;;;28.55;37.29;101601.63;5054242;28;19932;-80
2023/06/29 07:12:52;;;;;;;;;;;;;;;28.69;36.91;101595.72;5058498;28;19921;-80
2023/06/29 07:15:17;;;;;;;;;;;;;;;28.91;36.94;101601.88;5057324;28;19970;-80
2023/06/29 07:17:43;;;;;;;;;;;;;;;29.07;36.26;101597.97;5054641;28;20378;-80
2023/06/29 07:20:08;;;;;;;;;;;;;;;29.21;36.52;101599.50;5058209;28;19926;-80
2023/06/29 07:22:34;;;;;;;;;;;;;;;29.31;36.29;101593.47;5058549;28;20840;-80
2023/06/29 07:25:00;;;;;;;;;;;;;;;29.39;36.09;101598.81;5066431;28;20288;-81
2023/06/29 07:27:25;;;;;;;;;;;;;;;29.42;34.72;101594.53;5066125;28;19924;-80
2023/06/29 07:29:51;;;;;;;;;;;;;;;29.38;35.06;101594.44;5061718;28;20442;-79
2023/06/29 07:32:16;;;;;;;;;;;;;;;29.42;34.75;101586.25;5062640;28;19916;-80
2023/06/29 07:34:41;;;;;;;;;;;;;;;29.49;34.94;101580.97;5062364;28;20372;-81
2023/06/29 07:37:07;;;;;;;;;;;;;;;29.57;34.97;101581.94;5063075;28;19921;-81
2023/06/29 07:39:33;;;;;;;;;;;;;;;29.64;34.52;101582.91;5061163;28;20384;-81
2023/06/29 07:41:58;;;;;;;;;;;;;;;29.71;34.58;101577.56;5060881;28;19921;-81
2023/06/29 07:44:23;;;;;;;;;;;;;;;29.82;34.11;101577.03;5060459;28;20534;-81
2023/06/29 07:46:49;;;;;;;;;;;;;;;29.91;34.18;101570.13;5060486;28;19983;-81
2023/06/29 07:49:14;;;;;;;;;;;;;;;30.01;34.09;101574.31;5065532;28;19920;-82
2023/06/29 07:51:40;;;;;;;;;;;;;;;30.11;34.01;101575.72;5061607;28;19921;-81
2023/06/29 07:54:06;;;;;;;;;;;;;;;30.24;34.31;101572.47;5056526;28;19982;-80
2023/06/29 07:56:32;;;;;;;;;;;;;;;30.37;33.15;101571.19;5058279;28;19963;-80
2023/06/29 07:58:57;;;;;;;;;;;;;;;30.36;33.50;101572.34;5063124;28;19955;-81
2023/06/29 08:01:23;;;;;;;;;;;;;;;30.34;32.65;101568.31;5059502;28;19920;-81
2023/06/29 08:03:48;;;;;;;;;;;;;;;30.36;33.18;101564.06;5061808;28;19924;-81
2023/06/29 08:06:13;;;;;;;;;;;;;;;30.36;32.95;101566.03;5066149;28;19917;-81
2023/06/29 08:08:39;;;;;;;;;;;;;;;30.36;32.72;101561.28;5060001;28;20004;-80
2023/06/29 08:11:04;;;;;;;;;;;;;;;30.40;32.82;101560.56;5062592;28;19916;-81
2023/06/29 08:13:29;;;;;;;;;;;;;;;30.43;32.48;101554.28;5060019;28;19921;-80
2023/06/29 08:15:55;;;;;;;;;;;;;;;30.52;32.91;101549.31;5058342;28;19924;-81
2023/06/29 08:18:20;;;;;;;;;;;;;;;30.65;32.45;101553.59;5058610;28;20555;-80
2023/06/29 08:20:46;;;;;;;;;;;;;;;30.78;32.48;101551.47;5061286;28;19927;-81
2023/06/29 08:23:11;;;;;;;;;;;;;;;30.87;32.40;101552.81;5057714;28;19920;-81
2023/06/29 08:37:48;;;;;;;;;;;;;;;31.45;30.94;101552.69;5058478;28;19924;-83
2023/06/29 08:40:17;;;;;;;;;;;;;;;31.19;31.22;101549.84;5058260;28;19916;-82
2023/06/29 08:42:43;;;;;;;;;;;;;;;31.02;31.18;101545.56;5058474;28;19921;-82
2023/06/29 08:45:09;;;;;;;;;;;;;;;31.16;31.75;101550.56;5055154;28;20528;-82
2023/06/29 08:47:37;;;;;;;;;;;;;;;31.31;30.43;101546.91;5066259;28;19916;-82
2023/06/29 08:50:03;;;;;;;;;;;;;;;31.24;29.94;101547.59;5066467;28;19920;-82
2023/06/29 08:52:30;;;;;;;;;;;;;;;31.08;30.21;101551.63;5061556;28;20018;-82
2023/06/29 08:54:57;;;;;;;;;;;;;;;31.16;30.83;101545.03;5062938;28;19924;-82
2023/06/29 08:57:22;;;;;;;;;;;;;;;31.34;30.27;101543.41;5058962;28;19921;-82
2023/06/29 08:59:48;;;;;;;;;;;;;;;31.45;30.45;101541.63;5055663;28;19921;-83
2023/06/29 09:02:14;;;;;;;;;;;;;;;31.64;30.58;101537.94;5057345;28;19977;-82
2023/06/29 09:04:40;;;;;;;;;;;;;;;31.84;29.73;101541.44;5062698;28;20356;-83
2023/06/29 09:07:05;;;;;;;;;;;;;;;31.83;29.64;101539.84;5061805;28;19927;-82
2023/06/29 09:09:31;;;;;;;;;;;;;;;31.77;29.74;101539.34;5061758;28;19919;-83
2023/06/29 09:11:56;;;;;;;;;;;;;;;31.90;30.02;101539.91;5059810;28;19928;-82
2023/06/29 09:14:22;;;;;;;;;;;;;;;32.08;29.98;101532.66;5057005;28;19916;-82
2023/06/29 09:16:51;;;;;;;;;;;;;;;32.32;29.70;101530.63;5058296;28;19927;-82
2023/06/29 09:19:17;;;;;;;;;;;;;;;32.41;29.45;101531.09;5054278;28;19920;-82
2023/06/29 09:21:44;;;;;;;;;;;;;;;32.50;29.60;101528.84;5062986;28;19917;-83
2023/06/29 09:24:09;;;;;;;;;;;;;;;32.57;29.31;101530.91;5060123;28;20413;-83
2023/06/29 09:26:36;;;;;;;;;;;;;;;32.63;29.05;101523.81;5053747;28;19920;-82
2023/06/29 09:29:03;;;;;;;;;;;;;;;32.73;28.89;101528.69;5061888;28;19921;-82
2023/06/29 09:31:32;;;;;;;;;;;;;;;32.85;28.78;101527.63;5059623;28;19925;-82
2023/06/29 09:34:20;;;;;;;;;;;;;;;32.86;29.12;101529.25;5061330;28;19928;-82
2023/06/29 09:36:46;;;;;;;;;;;;;;;32.80;28.58;101536.28;5058916;28;19928;-82
2023/06/29 09:39:14;;;;;;;;;;;;;;;32.78;29.29;101525.56;5057568;28;20022;-82
2023/06/29 09:41:47;;;;;;;;;;;;;;;32.85;28.54;101533.97;5058823;28;19971;-82
2023/06/29 09:44:19;;;;;;;;;;;;;;;32.92;28.05;101519.41;5060027;28;19928;-82
2023/06/29 09:46:44;;;;;;;;;;;;;;;32.72;27.09;101516.81;5051017;28;20450;-82
2023/06/29 09:49:10;;;;;;;;;;;;;;;32.60;28.26;101519.03;5057311;28;19920;-83
2023/06/29 09:51:35;;;;;;;;;;;;;;;32.61;28.20;101518.66;5059088;28;19921;-82
2023/06/29 09:54:01;;;;;;;;;;;;;;;32.70;27.87;101521.13;5063000;28;20437;-82
2023/06/29 09:56:27;;;;;;;;;;;;;;;32.60;27.88;101508.75;5053588;28;20022;-82
2023/06/29 09:58:53;;;;;;;;;;;;;;;32.43;28.45;101507.38;5060413;28;19924;-82
2023/06/29 10:01:19;;;;;;;;;;;;;;;32.43;28.48;101504.59;5056066;28;19981;-83
2023/06/29 10:03:44;;;;;;;;;;;;;;;32.46;28.69;101503.03;5057743;28;20470;-82
2023/06/29 10:06:15;;;;;;;;;;;;;;;32.57;28.13;101498.41;5056803;28;19920;-82
2023/06/29 10:08:42;;;;;;;;;;;;;;;32.74;28.35;101495.00;5055390;28;19916;-83
2023/06/29 10:11:07;;;;;;;;;;;;;;;32.98;28.55;101502.00;5053782;28;19927;-83
2023/06/29 10:13:43;;;;;;;;;;;;;;;33.06;28.06;101497.31;5061776;28;19920;-83
2023/06/29 10:16:10;;;;;;;;;;;;;;;33.04;27.78;101494.13;5060287;28;21304;-82
2023/06/29 10:18:38;;;;;;;;;;;;;;;33.14;28.40;101490.63;5064844;28;19921;-82
2023/06/29 10:21:03;;;;;;;;;;;;;;;33.19;27.84;101481.16;5059638;28;19921;-82
2023/06/29 10:23:29;;;;;;;;;;;;;;;33.37;28.35;101481.31;5053177;28;19928;-82
2023/06/29 10:25:55;;;;;;;;;;;;;;;33.63;28.15;101483.88;5065514;28;19967;-82
2023/06/29 10:28:21;;;;;;;;;;;;;;;33.91;27.88;101478.47;5058764;28;20384;-82
2023/06/29 10:30:47;;;;;;;;;;;;;;;34.15;27.35;101479.78;5057863;28;20019;-82
2023/06/29 10:33:13;;;;;;;;;;;;;;;34.27;26.87;101478.59;5058421;28;19920;-81
2023/06/29 10:35:39;;;;;;;;;;;;;;;34.33;27.19;101471.50;5060620;28;19951;-82
2023/06/29 10:38:13;;;;;;;;;;;;;;;34.37;26.81;101471.53;5056645;28;19927;-86
2023/06/29 10:40:46;;;;;;;;;;;;;;;34.26;26.61;101465.88;5052584;28;19928;-82
2023/06/29 10:43:12;;;;;;;;;;;;;;;34.21;26.02;101464.31;5057187;28;19924;-82
2023/06/29 10:45:37;;;;;;;;;;;;;;;34.10;26.90;101459.88;5060783;28;19917;-82
2023/06/29 10:48:03;;;;;;;;;;;;;;;33.97;26.95;101464.22;5061616;28;20007;-82
2023/06/29 10:50:30;;;;;;;;;;;;;;;33.99;26.23;101461.84;5060286;28;19975;-83
2023/06/29 10:52:58;;;;;;;;;;;;;;;34.01;26.68;101451.91;5056513;28;21260;-82
2023/06/29 10:55:25;;;;;;;;;;;;;;;34.10;26.27;101457.09;5055500;28;19947;-82
2023/06/29 10:57:53;;;;;;;;;;;;;;;34.21;26.33;101457.94;5066124;28;19916;-82
2023/06/29 11:00:19;;;;;;;;;;;;;;;34.29;26.90;101453.97;5065222;28;19916;-82
2023/06/29 11:02:46;;;;;;;;;;;;;;;34.50;26.73;101451.28;5064910;28;19956;-82
2023/06/29 11:05:16;;;;;;;;;;;;;;;34.64;26.39;101456.06;5062164;28;19920;-82
2023/06/29 11:07:41;;;;;;;;;;;;;;;34.55;26.23;101458.44;5056067;28;19928;-82
2023/06/29 11:10:07;;;;;;;;;;;;;;;34.54;26.48;101454.88;5060592;28;19920;-82
2023/06/29 11:12:33;;;;;;;;;;;;;;;34.64;25.97;101453.28;5062372;28;19920;-83
2023/06/29 11:14:58;;;;;;;;;;;;;;;34.56;25.75;101448.13;5054828;28;20494;-82
2023/06/29 11:17:23;;;;;;;;;;;;;;;34.38;26.16;101448.09;5062562;28;19916;-82
2023/06/29 11:19:50;;;;;;;;;;;;;;;34.42;26.60;101446.88;5066866;28;19916;-82
2023/06/29 11:22:19;;;;;;;;;;;;;;;34.68;26.96;101454.09;5063801;28;19932;-83
2023/06/29 11:24:44;;;;;;;;;;;;;;;34.95;26.98;101440.59;5061546;28;20453;-82
2023/06/29 11:27:10;;;;;;;;;;;;;;;35.04;26.68;101449.38;5065986;28;20007;-82
2023/06/29 11:29:35;;;;;;;;;;;;;;;35.00;26.21;101453.31;5062343;28;19924;-82
2023/06/29 11:32:01;;;;;;;;;;;;;;;34.98;26.54;101447.34;5062154;28;20447;-83
2023/06/29 11:34:26;;;;;;;;;;;;;;;34.91;26.55;101450.94;5058233;28;19920;-83
2023/06/29 11:36:52;;;;;;;;;;;;;;;34.93;26.73;101448.56;5061568;28;20291;-83
2023/06/29 11:39:18;;;;;;;;;;;;;;;34.92;26.38;101443.38;5060938;28;20392;-82
2023/06/29 11:41:45;;;;;;;;;;;;;;;34.89;26.45;101447.78;5063942;28;19927;-82
2023/06/29 11:44:11;;;;;;;;;;;;;;;34.89;26.36;101439.41;5061296;28;19921;-82
2023/06/29 11:46:36;;;;;;;;;;;;;;;34.92;26.69;101435.84;5058287;28;19967;-82
2023/06/29 11:49:03;;;;;;;;;;;;;;;35.11;26.60;101437.41;5064400;28;20007;-83
2023/06/29 11:51:29;;;;;;;;;;;;;;;35.23;26.53;101437.00;5061987;28;19924;-83
2023/06/29 11:53:55;;;;;;;;;;;;;;;35.35;26.44;101436.59;5060078;28;19917;-82
2023/06/29 11:56:24;;;;;;;;;;;;;;;35.50;26.39;101431.78;5060120;28;19925;-83
2023/06/29 11:58:50;;;;;;;;;;;;;;;35.41;26.10;101434.22;5058940;28;20003;-83
2023/06/29 12:01:15;;;;;;;;;;;;;;;35.34;26.27;101434.97;5058025;28;20062;-82
2023/06/29 12:03:40;;;;;;;;;;;;;;;35.33;26.72;101424.22;5055528;28;19947;-83
2023/06/29 12:06:05;;;;;;;;;;;;;;;35.35;26.49;101424.66;5060524;28;19928;-83
2023/06/29 12:08:40;;;;;;;;;;;;;;;35.27;26.56;101429.44;5054969;28;19973;-83
2023/06/29 12:11:06;;;;;;;;;;;;;;;35.23;26.65;101419.50;5058250;28;19920;-82
2023/06/29 12:13:31;;;;;;;;;;;;;;;35.27;26.52;101420.28;5054858;28;19928;-82
2023/06/29 12:16:01;;;;;;;;;;;;;;;35.29;26.40;101420.66;5059924;28;19925;-83
2023/06/29 12:18:29;;;;;;;;;;;;;;;35.36;26.84;101415.09;5059621;28;19978;-82
2023/06/29 12:21:00;;;;;;;;;;;;;;;35.40;26.46;101411.13;5054829;28;19948;-82
2023/06/29 12:23:25;;;;;;;;;;;;;;;35.46;26.64;101407.91;5058608;28;20469;-83
2023/06/29 12:25:51;;;;;;;;;;;;;;;35.57;26.21;101395.53;5064720;28;19916;-83
2023/06/29 12:28:16;;;;;;;;;;;;;;;35.67;26.30;101397.47;5062224;28;19925;-83
2023/06/29 12:30:42;;;;;;;;;;;;;;;35.82;26.17;101395.44;5061303;28;20022;-81
2023/06/29 12:33:08;;;;;;;;;;;;;;;35.99;26.09;101402.94;5062419;28;21928;-81
2023/06/29 12:35:33;;;;;;;;;;;;;;;36.16;25.79;101400.47;5066494;28;19942;-82
2023/06/29 12:37:58;;;;;;;;;;;;;;;36.40;25.58;101395.94;5055761;28;19943;-81
2023/06/29 12:40:24;;;;;;;;;;;;;;;36.51;25.05;101394.66;5054084;28;20261;-81